Buffalo Gap, Texas
Current Conditions -  °F | °C
As of 5:58 AM on Sunday 21 Dec 2014 (Local Time) from KDYS Reporting Station
Broken Clouds Broken Clouds  
Wind Chill: 40°   Ceiling: 1700
Heat Index: 46°   Visibility: 10mi
Dew Point: 40°   Wind: 13mph
Humidity: 80%   Direction: 200°SSW
Pressure: 30"   Gusts: NA
Location:  32.28°N, 99.83°W
Report Text: KDYS 211158Z AUTO 20011KT 10SM BKN017 08/05 A3000 RMK AO2 CIG 011 RWY16 SLP151 T00790047 10080 20059 55009 $
Loading
Personal Weather Stations






























Interactive Weather Map New forecast layout! Learn more

10-Day Weather Forecast

Advertisements
Track Severe Weather on mobile